createdAt,value
2022-11-24T00:15:43.908Z,8.77
2022-11-24T00:18:10.567Z,11.35
2022-11-24T00:20:37.166Z,10.75
2022-11-24T00:23:03.752Z,16.20
2022-11-24T00:25:30.392Z,6.63
2022-11-24T00:27:56.962Z,8.95
2022-11-24T00:30:23.626Z,10.63
2022-11-24T00:32:50.291Z,13.60
2022-11-24T00:35:16.889Z,14.45
2022-11-24T00:40:09.104Z,13.35
2022-11-24T00:42:35.835Z,9.52
2022-11-24T00:45:13.257Z,10.85
2022-11-24T00:47:40.677Z,9.98
2022-11-24T00:52:32.875Z,10.48
2022-11-24T00:54:59.542Z,12.90
2022-11-24T00:57:26.129Z,15.27
2022-11-24T00:59:52.748Z,9.13
2022-11-24T01:02:19.515Z,11.98
2022-11-24T01:04:46.121Z,11.65
2022-11-24T01:09:38.210Z,7.53
2022-11-24T01:12:05.140Z,8.25
2022-11-24T01:14:33.238Z,14.52
2022-11-24T01:17:00.131Z,15.25
2022-11-24T01:19:26.997Z,8.32
2022-11-24T01:24:19.299Z,12.13
2022-11-24T01:26:46.031Z,11.80
2022-11-24T01:31:38.426Z,14.43
2022-11-24T01:34:05.092Z,11.35
2022-11-24T01:36:31.841Z,15.13
2022-11-24T01:38:58.534Z,15.05
2022-11-24T01:41:25.771Z,15.13
2022-11-24T01:49:03.126Z,12.52
2022-11-24T01:51:30.899Z,14.55
2022-11-24T01:56:28.561Z,13.75
2022-11-24T01:58:57.355Z,16.67
2022-11-24T02:01:24.735Z,14.82
2022-11-24T02:03:52.313Z,15.82
2022-11-24T02:06:21.875Z,12.82
2022-11-24T02:08:54.885Z,12.27
2022-11-24T02:11:22.986Z,17.33
2022-11-24T02:13:50.302Z,18.48
2022-11-24T02:16:17.077Z,15.07
2022-11-24T02:18:44.114Z,17.17
2022-11-24T02:21:11.995Z,13.07
2022-11-24T02:26:34.138Z,16.73
2022-11-24T02:29:00.835Z,13.15
2022-11-24T02:31:27.855Z,14.18
2022-11-24T02:33:55.241Z,16.60
2022-11-24T02:36:21.889Z,15.80
2022-11-24T02:38:48.574Z,16.52
2022-11-24T02:41:16.690Z,16.75
2022-11-24T02:46:11.073Z,15.65
2022-11-24T02:48:38.072Z,14.68
2022-11-24T02:53:30.623Z,16.75
2022-11-24T02:55:57.283Z,19.38
2022-11-24T03:03:15.424Z,15.35
2022-11-24T03:05:42.403Z,12.90
2022-11-24T03:08:08.993Z,18.50
2022-11-24T03:10:35.692Z,14.45
2022-11-24T03:13:02.304Z,13.73
2022-11-24T03:15:28.974Z,13.98
2022-11-24T03:17:56.813Z,24.90
2022-11-24T03:20:23.898Z,21.30
2022-11-24T03:22:50.800Z,17.88
2022-11-24T03:25:20.393Z,15.85
2022-11-24T03:30:12.889Z,20.08
2022-11-24T03:32:39.596Z,21.75
2022-11-24T03:37:31.787Z,15.05
2022-11-24T03:39:58.477Z,14.05
2022-11-24T03:42:25.128Z,15.35
2022-11-24T03:44:51.787Z,22.15
2022-11-24T03:47:18.402Z,14.63
2022-11-24T03:49:45.874Z,21.13
2022-11-24T03:52:12.466Z,19.27
2022-11-24T03:54:39.136Z,18.42
2022-11-24T03:57:05.806Z,24.30
2022-11-24T03:59:32.467Z,23.27
2022-11-24T04:01:59.101Z,22.05
2022-11-24T04:06:51.125Z,18.73
2022-11-24T04:09:17.841Z,17.83
2022-11-24T04:12:03.143Z,25.20
2022-11-24T04:14:29.775Z,25.58
2022-11-24T04:16:56.357Z,22.90
2022-11-24T04:19:22.958Z,26.75
2022-11-24T04:21:49.579Z,15.52
2022-11-24T04:24:16.172Z,24.30
2022-11-24T04:26:42.832Z,27.58
2022-11-24T04:29:09.647Z,14.90
2022-11-24T04:31:36.297Z,25.08
2022-11-24T04:34:02.941Z,18.23
2022-11-24T04:36:29.596Z,28.13
2022-11-24T04:39:24.422Z,17.58
2022-11-24T04:41:42.810Z,19.67
2022-11-24T04:44:09.446Z,29.40
2022-11-24T04:46:36.099Z,20.65
2022-11-24T04:49:02.885Z,20.73
2022-11-24T04:51:30.083Z,24.88
2022-11-24T04:53:56.714Z,15.38
2022-11-24T04:56:23.382Z,19.88
2022-11-24T04:58:50.054Z,25.20
2022-11-24T05:01:16.664Z,25.33
2022-11-24T05:06:09.045Z,25.30
2022-11-24T05:08:35.807Z,21.08
2022-11-24T05:13:32.010Z,25.15
2022-11-24T05:16:03.513Z,27.23
2022-11-24T05:20:55.891Z,32.30
2022-11-24T05:23:22.536Z,24.55
2022-11-24T05:28:14.896Z,28.33
2022-11-24T05:30:41.611Z,22.15
2022-11-24T05:42:55.302Z,26.27
2022-11-24T05:45:22.216Z,26.05
2022-11-24T05:52:41.953Z,31.70
2022-11-24T05:57:34.972Z,32.90
2022-11-24T06:00:01.976Z,35.88
2022-11-24T06:02:39.257Z,24.95
2022-11-24T06:05:06.153Z,39.42
2022-11-24T06:07:32.863Z,27.70
2022-11-24T06:19:42.264Z,22.90
2022-11-24T06:22:09.107Z,29.48
2022-11-24T06:24:36.005Z,30.58
2022-11-24T06:27:02.994Z,31.77
2022-11-24T06:29:29.572Z,26.25
2022-11-24T06:34:21.697Z,32.80
2022-11-24T06:36:48.337Z,31.92
2022-11-24T06:39:14.956Z,29.20
2022-11-24T06:41:41.568Z,30.75
2022-11-24T06:44:08.224Z,36.33
2022-11-24T06:51:26.898Z,35.70
2022-11-24T06:56:19.765Z,30.17
2022-11-24T06:58:47.982Z,35.63
2022-11-24T07:01:18.996Z,27.67
2022-11-24T07:03:46.094Z,27.73
2022-11-24T07:06:12.706Z,43.50
2022-11-24T07:08:39.297Z,25.80
2022-11-24T07:11:06.643Z,28.63
2022-11-24T07:13:33.192Z,24.75
2022-11-24T07:16:00.265Z,21.40
2022-11-24T07:18:27.203Z,20.15
2022-11-24T07:20:53.866Z,29.23
2022-11-24T07:25:45.844Z,25.55
2022-11-24T07:28:12.523Z,30.38
2022-11-24T07:37:59.318Z,39.20
2022-11-24T07:40:26.968Z,37.45
2022-11-24T07:42:54.278Z,41.60
2022-11-24T07:45:25.858Z,32.67
2022-11-24T07:47:52.553Z,33.13
2022-11-24T07:50:19.208Z,37.17
2022-11-24T07:52:45.770Z,33.67
2022-11-24T07:55:12.454Z,30.90
2022-11-24T07:57:39.170Z,20.15
2022-11-24T08:02:31.717Z,30.13
2022-11-24T08:04:58.374Z,37.47
2022-11-24T08:07:25.056Z,39.97
2022-11-24T08:09:52.298Z,27.92
2022-11-24T08:12:21.870Z,34.92
2022-11-24T08:17:15.075Z,34.63
2022-11-24T08:19:41.760Z,34.70
2022-11-24T08:22:08.518Z,34.90
2022-11-24T08:27:01.028Z,21.08
2022-11-24T08:29:28.497Z,25.25
2022-11-24T08:34:23.982Z,35.05
2022-11-24T08:36:51.060Z,28.60
2022-11-24T08:44:10.753Z,23.30
2022-11-24T08:49:03.333Z,23.70
2022-11-24T08:51:31.050Z,23.70
2022-11-24T08:53:58.797Z,30.50
2022-11-24T08:56:26.304Z,26.17
2022-11-24T08:58:53.453Z,24.35
2022-11-24T09:01:20.130Z,33.00
2022-11-24T09:03:50.668Z,28.40
2022-11-24T09:06:18.510Z,26.58
2022-11-24T09:11:11.757Z,37.35
2022-11-24T09:13:38.890Z,29.00
2022-11-24T09:16:06.655Z,27.08
2022-11-24T09:18:33.426Z,27.40
2022-11-24T09:23:43.309Z,29.52
2022-11-24T09:26:14.615Z,28.65
2022-11-24T09:33:34.388Z,31.58
2022-11-24T09:46:06.333Z,34.53
2022-11-24T09:48:38.549Z,24.42
2022-11-24T09:51:05.947Z,30.17
2022-11-24T09:53:32.691Z,24.90
2022-11-24T09:56:00.902Z,26.50
2022-11-24T10:03:39.756Z,32.50
2022-11-24T10:06:15.873Z,22.00
2022-11-24T10:11:46.394Z,32.13
2022-11-24T10:22:34.723Z,18.60
2022-11-24T10:27:51.804Z,29.55
2022-11-24T10:35:17.470Z,18.92
2022-11-24T10:38:07.733Z,29.30
2022-11-24T10:40:56.531Z,19.35
2022-11-24T10:43:26.001Z,21.27
2022-11-24T10:45:52.836Z,23.60
2022-11-24T10:48:24.681Z,27.42
2022-11-24T10:50:54.448Z,26.30
2022-11-24T10:53:23.878Z,25.23
2022-11-24T10:55:56.538Z,26.70
2022-11-24T10:58:24.849Z,25.80
2022-11-24T11:00:51.477Z,21.88
2022-11-24T11:05:49.138Z,21.83
2022-11-24T11:13:32.989Z,32.45
2022-11-24T11:15:59.830Z,30.25
2022-11-24T11:18:35.945Z,27.45
2022-11-24T11:21:03.733Z,31.58
2022-11-24T11:23:34.887Z,33.47
2022-11-24T11:26:17.402Z,30.55
2022-11-24T11:28:56.774Z,26.67
2022-11-24T11:34:05.919Z,31.33
2022-11-24T11:36:35.937Z,28.57
2022-11-24T11:39:03.774Z,23.67
2022-11-24T11:41:32.413Z,23.08
2022-11-24T11:46:37.571Z,29.80
2022-11-24T11:49:04.492Z,20.40
2022-11-24T11:51:49.257Z,28.42
2022-11-24T11:54:15.962Z,26.70
2022-11-24T11:56:45.215Z,22.85
2022-11-24T12:01:46.432Z,22.75
2022-11-24T12:09:31.334Z,22.33
2022-11-24T12:11:57.977Z,19.20
2022-11-24T12:17:08.367Z,17.92
2022-11-24T12:24:52.177Z,17.05
2022-11-24T12:27:23.350Z,17.98
2022-11-24T12:29:50.101Z,21.13
2022-11-24T12:32:29.721Z,20.38
2022-11-24T12:35:03.765Z,21.17
2022-11-24T12:48:00.476Z,15.90
2022-11-24T12:50:28.177Z,19.00
2022-11-24T12:53:02.154Z,18.17
2022-11-24T12:55:30.254Z,10.52
2022-11-24T12:58:12.347Z,16.75
2022-11-24T13:03:10.568Z,16.70
2022-11-24T13:05:43.775Z,14.63
2022-11-24T13:08:10.865Z,15.00
2022-11-24T13:21:04.101Z,8.55
2022-11-24T13:23:30.873Z,13.73
2022-11-24T13:31:30.932Z,12.70
2022-11-24T13:33:58.017Z,11.80
2022-11-24T13:36:26.213Z,7.95
2022-11-24T13:49:36.890Z,9.00
2022-11-24T13:52:22.322Z,13.77
2022-11-24T13:54:49.650Z,8.38
2022-11-24T13:57:35.392Z,13.95
2022-11-24T14:04:55.010Z,14.95
2022-11-24T14:07:22.824Z,18.65
2022-11-24T14:09:52.497Z,23.85
2022-11-24T14:22:16.219Z,14.20
2022-11-24T14:24:45.517Z,17.48
2022-11-24T14:32:18.082Z,21.63
2022-11-24T14:34:44.756Z,18.60
2022-11-24T14:37:11.465Z,23.65
2022-11-24T14:42:25.303Z,17.35
2022-11-24T15:00:04.132Z,29.95
2022-11-24T15:02:38.733Z,24.83
2022-11-24T15:05:08.015Z,18.38
2022-11-24T15:07:36.485Z,32.60
2022-11-24T15:12:36.320Z,29.58
2022-11-24T15:15:12.074Z,24.42
2022-11-24T15:17:45.320Z,26.13
2022-11-24T15:32:52.502Z,22.63
2022-11-24T15:35:19.513Z,22.48
2022-11-24T15:37:46.184Z,23.67
2022-11-24T15:45:41.219Z,16.38
2022-11-24T15:48:07.850Z,22.80
2022-11-24T15:50:35.704Z,21.40
2022-11-24T15:53:02.765Z,21.83
2022-11-24T15:55:29.499Z,24.95
2022-11-24T15:57:56.101Z,22.60
2022-11-24T16:05:33.301Z,19.40
2022-11-24T16:08:00.000Z,20.30
2022-11-24T16:10:28.995Z,19.75
2022-11-24T16:12:55.567Z,21.15
2022-11-24T16:15:22.217Z,21.67
2022-11-24T16:17:48.805Z,23.90
2022-11-24T16:20:15.545Z,25.73
2022-11-24T16:22:42.620Z,25.92
2022-11-24T16:25:09.646Z,27.95
2022-11-24T16:30:01.935Z,30.90
2022-11-24T16:32:28.726Z,19.38
2022-11-24T16:34:55.364Z,16.70
2022-11-24T16:37:22.163Z,16.60
2022-11-24T16:39:50.380Z,24.27
2022-11-24T16:44:42.766Z,18.27
2022-11-24T16:47:09.511Z,19.23
2022-11-24T16:52:01.545Z,18.13
2022-11-24T16:54:28.265Z,22.13
2022-11-24T16:56:55.243Z,20.75
2022-11-24T16:59:21.904Z,18.25
2022-11-24T17:01:50.726Z,15.63
2022-11-24T17:06:43.712Z,18.75
2022-11-24T17:09:10.350Z,17.67
2022-11-24T17:14:05.464Z,24.00
2022-11-24T17:16:32.180Z,14.55
2022-11-24T17:18:59.916Z,18.90
2022-11-24T17:21:27.012Z,22.55
2022-11-24T17:23:55.095Z,18.55
2022-11-24T17:28:47.898Z,13.63
2022-11-24T17:33:51.195Z,26.30
2022-11-24T17:36:17.892Z,32.08
2022-11-24T17:43:35.577Z,20.35
2022-11-24T17:46:03.684Z,21.70
2022-11-24T17:48:31.482Z,26.10
2022-11-24T17:51:08.349Z,32.67
2022-11-24T17:53:39.286Z,18.67
2022-11-24T18:01:02.362Z,24.23
2022-11-24T18:03:31.603Z,16.88
2022-11-24T18:06:03.922Z,23.08
2022-11-24T18:11:02.925Z,14.32
2022-11-24T18:13:54.852Z,16.02
2022-11-24T18:18:45.953Z,19.50
2022-11-24T18:21:16.741Z,14.38
2022-11-24T18:26:10.533Z,19.77
2022-11-24T18:28:37.190Z,17.83
2022-11-24T18:31:04.726Z,17.75
2022-11-24T18:33:31.455Z,22.98
2022-11-24T18:35:59.382Z,20.80
2022-11-24T18:38:26.785Z,21.63
2022-11-24T18:40:54.394Z,23.00
2022-11-24T18:43:21.277Z,26.33
2022-11-24T18:45:47.970Z,24.67
2022-11-24T18:48:15.106Z,15.10
2022-11-24T18:50:41.812Z,31.42
2022-11-24T18:55:35.453Z,20.58
2022-11-24T18:58:02.143Z,26.33
2022-11-24T19:02:54.546Z,18.33
2022-11-24T19:05:21.431Z,24.75
2022-11-24T19:10:13.654Z,19.08
2022-11-24T19:12:40.293Z,16.85
2022-11-24T19:22:23.651Z,14.30
2022-11-24T19:24:51.064Z,16.20
2022-11-24T19:27:18.632Z,20.65
2022-11-24T19:34:37.750Z,13.68
2022-11-24T19:37:04.657Z,14.25
2022-11-24T19:39:31.515Z,12.48
2022-11-24T19:41:58.137Z,11.50
2022-11-24T19:44:25.164Z,9.00
2022-11-24T19:46:52.060Z,15.00
2022-11-24T19:49:18.734Z,18.63
2022-11-24T19:54:13.261Z,6.85
2022-11-24T19:56:41.332Z,9.43
2022-11-24T20:01:34.679Z,13.20
2022-11-24T20:04:05.959Z,17.95
2022-11-24T20:09:00.812Z,12.45
2022-11-24T20:11:28.226Z,14.30
2022-11-24T20:18:51.718Z,15.48
2022-11-24T20:21:19.882Z,16.98
2022-11-24T20:28:40.884Z,12.30
2022-11-24T20:33:38.914Z,16.52
2022-11-24T20:36:07.120Z,16.85
2022-11-24T20:38:34.771Z,15.43
2022-11-24T20:41:08.622Z,19.55
2022-11-24T20:55:48.661Z,22.13
2022-11-24T21:00:40.943Z,22.70
2022-11-24T21:03:07.621Z,19.77
2022-11-24T21:10:25.140Z,19.42
2022-11-24T21:12:52.077Z,23.88
2022-11-24T21:15:18.872Z,24.85
2022-11-24T21:17:45.556Z,19.67
2022-11-24T21:20:13.082Z,16.92
2022-11-24T21:32:28.253Z,20.42
2022-11-24T21:37:20.671Z,24.08
2022-11-24T21:39:47.388Z,20.67
2022-11-24T21:44:39.587Z,19.45
2022-11-24T21:47:06.456Z,27.95
2022-11-24T21:51:58.533Z,22.02
2022-11-24T21:54:25.201Z,25.90
2022-11-24T22:01:45.526Z,21.98
2022-11-24T22:04:12.365Z,23.88
2022-11-24T22:06:39.061Z,28.77
2022-11-24T22:09:05.857Z,21.55
2022-11-24T22:11:32.540Z,17.80
2022-11-24T22:13:59.272Z,21.77
2022-11-24T22:16:26.092Z,22.80
2022-11-24T22:18:52.777Z,29.70
2022-11-24T22:26:19.381Z,24.70
2022-11-24T22:33:41.193Z,23.65
2022-11-24T22:36:08.003Z,22.05
2022-11-24T22:38:34.655Z,23.55
2022-11-24T22:41:05.720Z,23.65
2022-11-24T22:46:02.091Z,28.67
2022-11-24T22:48:28.738Z,26.13
2022-11-24T22:51:00.426Z,30.90
2022-11-24T22:53:27.056Z,17.65
2022-11-24T22:55:53.629Z,25.20
2022-11-24T23:00:45.649Z,22.98
2022-11-24T23:03:12.573Z,21.48
2022-11-24T23:05:39.392Z,23.60
2022-11-24T23:08:06.095Z,33.17
2022-11-24T23:10:32.709Z,30.02
2022-11-24T23:15:24.955Z,29.15
2022-11-24T23:17:51.674Z,27.42
2022-11-24T23:25:09.193Z,30.38
2022-11-24T23:27:35.905Z,30.98
2022-11-24T23:30:03.131Z,35.90
2022-11-24T23:32:29.778Z,38.78
2022-11-24T23:37:26.512Z,34.25
2022-11-24T23:40:01.093Z,38.67
2022-11-24T23:42:27.793Z,37.13
2022-11-24T23:44:54.491Z,38.88
2022-11-24T23:47:21.121Z,35.50
2022-11-24T23:49:47.737Z,41.03
2022-11-24T23:52:14.338Z,30.15
2022-11-24T23:54:40.939Z,31.60
2022-11-24T23:57:07.539Z,31.83
2022-11-24T23:59:34.234Z,33.70
